Time;durP1;ratioP1;P1;durP2;ratioP2;P2;SDS_P1;SDS_P2;PMS_P1;PMS_P2;Temp;Humidity;BMP_temperature;BMP_pressure;BME280_temperature;BME280_humidity;BME280_pressure;Samples;Min_cycle;Max_cycle;Signal;HPM_P1;HPM_P2
2021/03/15 00:02:50;;;;;;;;;;;6.70;90.90;;;;;;6161612;23;20282;-88
2021/03/15 00:05:23;;;;;;;;;;;6.60;90.90;;;;;;6184036;23;19926;-88
2021/03/15 00:08:18;;;;;;;;;;;6.60;90.90;;;;;;6178573;23;19915;-89
2021/03/15 00:11:05;;;;;;;;;;;;;;;;;;;;;
2021/03/15 00:14:03;;;;;;;;;;;;;;;;;;;;;
2021/03/15 00:22:50;;;;;;;;;;;;;;;;;;;;;
2021/03/15 00:25:33;;;;;;;;;;;6.60;91.10;;;;;;6185426;23;19979;-88
2021/03/15 00:31:18;;;;;;;;;;;6.70;91.20;;;;;;6171617;23;19967;-88
2021/03/15 00:34:01;;;;;;;;;;;6.60;91.20;;;;;;6159188;23;19905;-88
2021/03/15 00:36:45;;;;;;;;;;;6.60;91.20;;;;;;6159049;23;19939;-89
2021/03/15 00:39:14;;;;;;;;;;;6.60;91.20;;;;;;6156124;23;20238;-89
2021/03/15 00:41:52;;;;;;;;;;;;;;;;;;;;;
2021/03/15 00:47:22;;;;;;;;;;;6.60;91.30;;;;;;6170221;23;19907;-88
2021/03/15 00:50:13;;;;;;;;;;;6.60;91.30;;;;;;6203003;23;19919;-88
2021/03/15 00:53:07;;;;;;;;;;;6.60;91.40;;;;;;6158573;23;19908;-88
2021/03/15 01:02:00;;;;;;;;;;;6.60;91.50;;;;;;6141449;23;19904;-88
2021/03/15 01:04:58;;;;;;;;;;;6.60;91.50;;;;;;6184558;23;19901;-88
2021/03/15 01:07:50;;;;;;;;;;;6.60;91.60;;;;;;6158885;23;19954;-87
2021/03/15 01:10:25;;;;;;;;;;;6.50;91.60;;;;;;6169128;23;19966;-90
2021/03/15 01:13:32;;;;;;;;;;;6.50;91.60;;;;;;6207682;23;19904;-88
2021/03/15 01:15:59;;;;;;;;;;;6.60;91.60;;;;;;6184271;23;19988;-88
2021/03/15 01:19:07;;;;;;;;;;;6.60;91.60;;;;;;6185053;23;19900;-88
2021/03/15 01:21:40;;;;;;;;;;;6.50;91.60;;;;;;6069748;23;19939;-88
2021/03/15 01:24:36;;;;;;;;;;;;;;;;;;;;;
2021/03/15 01:27:30;;;;;;;;;;;;;;;;;;;;;
2021/03/15 01:29:58;;;;;;;;;;;6.50;91.70;;;;;;6091148;23;19939;-88
2021/03/15 01:32:35;;;;;;;;;;;6.50;91.70;;;;;;6068611;23;20004;-88
2021/03/15 01:35:33;;;;;;;;;;;;;;;;;;;;;
2021/03/15 01:38:13;;;;;;;;;;;;;;;;;;;;;
2021/03/15 01:40:46;;;;;;;;;;;6.50;91.70;;;;;;6109090;23;19975;-88
2021/03/15 01:43:41;;;;;;;;;;;6.50;91.70;;;;;;6184722;23;19904;-87
2021/03/15 01:46:55;;;;;;;;;;;6.50;91.70;;;;;;6185843;23;20354;-87
2021/03/15 01:49:29;;;;;;;;;;;6.50;91.80;;;;;;6177885;23;19983;-88
2021/03/15 01:52:18;;;;;;;;;;;6.50;91.80;;;;;;6159342;23;19904;-88
2021/03/15 01:55:14;;;;;;;;;;;;;;;;;;;;;
2021/03/15 01:58:16;;;;;;;;;;;6.50;91.80;;;;;;6180361;23;19983;-88
2021/03/15 02:03:48;;;;;;;;;;;6.50;91.90;;;;;;6186454;23;20306;-87
2021/03/15 02:06:43;;;;;;;;;;;;;;;;;;;;;
2021/03/15 02:09:31;;;;;;;;;;;;;;;;;;;;;
2021/03/15 02:18:47;;;;;;;;;;;;;;;;;;;;;
2021/03/15 02:21:42;;;;;;;;;;;6.50;91.90;;;;;;6186216;23;19975;-88
2021/03/15 02:24:13;;;;;;;;;;;6.50;92.00;;;;;;6184248;23;20258;-88
2021/03/15 02:27:08;;;;;;;;;;;;;;;;;;;;;
2021/03/15 02:30:21;;;;;;;;;;;6.50;92.00;;;;;;6185739;23;19967;-89
2021/03/15 02:38:34;;;;;;;;;;;6.50;92.30;;;;;;6118307;23;19908;-89
2021/03/15 02:41:23;;;;;;;;;;;6.50;92.10;;;;;;6058128;23;20374;-89
2021/03/15 02:44:13;;;;;;;;;;;;;;;;;;;;;
2021/03/15 02:47:17;;;;;;;;;;;;;;;;;;;;;
2021/03/15 02:50:00;;;;;;;;;;;;;;;;;;;;;
2021/03/15 02:52:35;;;;;;;;;;;6.50;92.30;;;;;;6156235;23;19991;-89
2021/03/15 02:55:24;;;;;;;;;;;;;;;;;;;;;
2021/03/15 02:58:02;;;;;;;;;;;6.50;92.30;;;;;;6156976;23;19987;-88
2021/03/15 03:00:40;;;;;;;;;;;;;;;;;;;;;
2021/03/15 03:06:03;;;;;;;;;;;6.40;92.30;;;;;;6155663;23;20299;-87
2021/03/15 03:08:40;;;;;;;;;;;6.40;92.20;;;;;;6153199;23;19998;-88
2021/03/15 03:11:22;;;;;;;;;;;6.40;92.20;;;;;;6149762;23;19912;-87
2021/03/15 03:14:27;;;;;;;;;;;;;;;;;;;;;
2021/03/15 03:17:22;;;;;;;;;;;6.40;92.20;;;;;;6157192;23;19983;-87
2021/03/15 03:20:32;;;;;;;;;;;6.40;92.20;;;;;;6153908;23;19904;-88
2021/03/15 03:23:24;;;;;;;;;;;6.40;92.30;;;;;;6156200;23;19983;-88
2021/03/15 03:26:22;;;;;;;;;;;;;;;;;;;;;
2021/03/15 03:28:51;;;;;;;;;;;6.40;92.30;;;;;;6156104;23;19995;-88
2021/03/15 03:32:05;;;;;;;;;;;6.50;92.30;;;;;;6155416;23;19905;-88
2021/03/15 03:34:45;;;;;;;;;;;6.40;92.30;;;;;;6152504;23;19928;-87
2021/03/15 03:37:14;;;;;;;;;;;6.40;92.30;;;;;;6152648;23;20377;-88
2021/03/15 03:42:50;;;;;;;;;;;6.40;92.30;;;;;;6145540;23;19904;-87
2021/03/15 03:45:28;;;;;;;;;;;6.50;92.40;;;;;;6153988;23;19908;-88
2021/03/15 03:47:58;;;;;;;;;;;6.40;92.40;;;;;;6155436;23;19955;-89
2021/03/15 03:53:56;;;;;;;;;;;6.40;92.40;;;;;;6144004;23;19932;-88
2021/03/15 03:56:50;;;;;;;;;;;6.40;92.50;;;;;;6154640;23;19907;-88
2021/03/15 03:59:24;;;;;;;;;;;6.40;92.50;;;;;;6003119;23;20254;-88
2021/03/15 04:02:21;;;;;;;;;;;6.40;92.40;;;;;;6154468;23;19907;-88
2021/03/15 04:05:00;;;;;;;;;;;6.40;92.50;;;;;;6120449;23;20376;-88
2021/03/15 04:07:29;;;;;;;;;;;6.40;92.50;;;;;;6130442;23;20296;-88
2021/03/15 04:10:13;;;;;;;;;;;6.40;92.60;;;;;;6152909;23;19900;-88
2021/03/15 04:13:01;;;;;;;;;;;6.30;92.60;;;;;;6129472;23;19909;-88
2021/03/15 04:15:28;;;;;;;;;;;6.30;92.60;;;;;;6139873;23;20303;-88
2021/03/15 04:20:57;;;;;;;;;;;6.30;92.60;;;;;;6123765;23;19944;-88
2021/03/15 04:23:58;;;;;;;;;;;;;;;;;;;;;
2021/03/15 04:26:35;;;;;;;;;;;6.30;92.60;;;;;;6108564;23;19979;-88
2021/03/15 04:29:24;;;;;;;;;;;6.40;92.70;;;;;;6153978;23;19948;-88
2021/03/15 04:32:25;;;;;;;;;;;6.30;92.70;;;;;;6106981;23;19905;-87
2021/03/15 04:35:10;;;;;;;;;;;;;;;;;;;;;
2021/03/15 04:37:37;;;;;;;;;;;6.30;92.70;;;;;;6155613;23;19975;-87
2021/03/15 04:40:23;;;;;;;;;;;;;;;;;;;;;
2021/03/15 04:42:59;;;;;;;;;;;6.30;92.70;;;;;;6152194;23;19975;-87
2021/03/15 04:45:52;;;;;;;;;;;6.30;92.70;;;;;;6149761;23;19987;-88
2021/03/15 04:51:47;;;;;;;;;;;;;;;;;;;;;
2021/03/15 04:54:29;;;;;;;;;;;6.40;92.70;;;;;;6215426;23;19986;-87
2021/03/15 04:57:04;;;;;;;;;;;6.40;92.60;;;;;;6191597;23;20348;-87
2021/03/15 04:59:44;;;;;;;;;;;;;;;;;;;;;
2021/03/15 05:02:40;;;;;;;;;;;;;;;;;;;;;
2021/03/15 05:05:19;;;;;;;;;;;6.40;92.70;;;;;;6216944;23;19987;-88
2021/03/15 05:07:51;;;;;;;;;;;6.40;92.70;;;;;;6213412;23;20314;-86
2021/03/15 05:10:28;;;;;;;;;;;;;;;;;;;;;
2021/03/15 05:13:07;;;;;;;;;;;;;;;;;;;;;
2021/03/15 05:18:53;;;;;;;;;;;6.40;92.60;;;;;;6125262;23;19908;-85
2021/03/15 05:21:23;;;;;;;;;;;6.40;92.60;;;;;;6207961;23;19911;-87
2021/03/15 05:24:18;;;;;;;;;;;6.40;92.60;;;;;;6215876;23;20305;-86
2021/03/15 05:26:57;;;;;;;;;;;6.40;92.60;;;;;;6216902;23;19911;-86
2021/03/15 22:40:45;;;;;;;;;;;;;;;;;;;;;
2021/03/15 22:59:35;;;;;;;;;;;;;;;;;;;;;
